sensor_id;sensor_type;location;lat;lon;timestamp;temperature;humidity
48994;DHT22;34804;49.214;12.276;2023-10-09T00:02:09;10.30;90.10
48994;DHT22;34804;49.214;12.276;2023-10-09T00:04:38;10.20;90.70
48994;DHT22;34804;49.214;12.276;2023-10-09T00:07:09;10.10;90.90
48994;DHT22;34804;49.214;12.276;2023-10-09T00:09:37;9.90;91.70
48994;DHT22;34804;49.214;12.276;2023-10-09T00:12:18;9.90;92.00
48994;DHT22;34804;49.214;12.276;2023-10-09T00:14:50;10.00;92.40
48994;DHT22;34804;49.214;12.276;2023-10-09T00:17:22;9.90;92.20
48994;DHT22;34804;49.214;12.276;2023-10-09T00:19:50;9.90;92.40
48994;DHT22;34804;49.214;12.276;2023-10-09T00:22:27;9.90;92.40
48994;DHT22;34804;49.214;12.276;2023-10-09T00:24:58;10.00;92.30
48994;DHT22;34804;49.214;12.276;2023-10-09T00:27:43;10.00;92.40
48994;DHT22;34804;49.214;12.276;2023-10-09T00:30:14;10.00;92.80
48994;DHT22;34804;49.214;12.276;2023-10-09T00:32:56;10.10;92.80
48994;DHT22;34804;49.214;12.276;2023-10-09T00:35:28;10.10;93.00
48994;DHT22;34804;49.214;12.276;2023-10-09T00:38:24;10.20;92.90
48994;DHT22;34804;49.214;12.276;2023-10-09T00:40:59;10.30;92.90
48994;DHT22;34804;49.214;12.276;2023-10-09T00:43:38;10.30;92.90
48994;DHT22;34804;49.214;12.276;2023-10-09T00:46:06;10.30;92.60
48994;DHT22;34804;49.214;12.276;2023-10-09T00:48:56;10.30;92.40
48994;DHT22;34804;49.214;12.276;2023-10-09T00:51:24;10.30;92.20
48994;DHT22;34804;49.214;12.276;2023-10-09T00:53:57;10.30;91.80
48994;DHT22;34804;49.214;12.276;2023-10-09T00:56:50;10.20;91.60
48994;DHT22;34804;49.214;12.276;2023-10-09T00:59:25;10.10;91.20
48994;DHT22;34804;49.214;12.276;2023-10-09T01:01:53;9.90;91.50
48994;DHT22;34804;49.214;12.276;2023-10-09T01:04:25;9.90;91.40
48994;DHT22;34804;49.214;12.276;2023-10-09T01:06:55;9.90;91.80
48994;DHT22;34804;49.214;12.276;2023-10-09T01:09:36;9.90;91.80
48994;DHT22;34804;49.214;12.276;2023-10-09T01:12:05;9.90;91.70
48994;DHT22;34804;49.214;12.276;2023-10-09T01:14:33;9.90;91.90
48994;DHT22;34804;49.214;12.276;2023-10-09T01:17:04;9.90;92.10
48994;DHT22;34804;49.214;12.276;2023-10-09T01:19:45;9.80;92.50
48994;DHT22;34804;49.214;12.276;2023-10-09T01:22:13;9.90;92.80
48994;DHT22;34804;49.214;12.276;2023-10-09T01:24:42;9.90;92.80
48994;DHT22;34804;49.214;12.276;2023-10-09T01:27:09;9.90;93.10
48994;DHT22;34804;49.214;12.276;2023-10-09T01:29:43;9.90;92.90
48994;DHT22;34804;49.214;12.276;2023-10-09T01:32:11;9.80;92.90
48994;DHT22;34804;49.214;12.276;2023-10-09T01:34:45;9.90;93.00
48994;DHT22;34804;49.214;12.276;2023-10-09T01:37:17;9.90;92.70
48994;DHT22;34804;49.214;12.276;2023-10-09T01:39:57;9.90;92.70
48994;DHT22;34804;49.214;12.276;2023-10-09T01:42:26;10.00;92.70
48994;DHT22;34804;49.214;12.276;2023-10-09T01:45:02;10.00;92.80
48994;DHT22;34804;49.214;12.276;2023-10-09T01:47:42;10.00;92.70
48994;DHT22;34804;49.214;12.276;2023-10-09T01:50:18;10.10;92.80
48994;DHT22;34804;49.214;12.276;2023-10-09T01:52:46;10.10;92.90
48994;DHT22;34804;49.214;12.276;2023-10-09T01:55:17;10.20;92.90
48994;DHT22;34804;49.214;12.276;2023-10-09T01:58:04;10.20;93.00
48994;DHT22;34804;49.214;12.276;2023-10-09T02:00:51;10.20;92.80
48994;DHT22;34804;49.214;12.276;2023-10-09T02:03:22;10.30;92.70
48994;DHT22;34804;49.214;12.276;2023-10-09T02:05:54;10.20;92.50
48994;DHT22;34804;49.214;12.276;2023-10-09T02:08:31;10.20;92.60
48994;DHT22;34804;49.214;12.276;2023-10-09T02:11:02;10.20;92.50
48994;DHT22;34804;49.214;12.276;2023-10-09T02:13:29;10.20;92.70
48994;DHT22;34804;49.214;12.276;2023-10-09T02:15:57;10.20;92.60
48994;DHT22;34804;49.214;12.276;2023-10-09T02:18:41;10.20;92.70
48994;DHT22;34804;49.214;12.276;2023-10-09T02:21:22;10.20;92.70
48994;DHT22;34804;49.214;12.276;2023-10-09T02:24:03;10.20;92.70
48994;DHT22;34804;49.214;12.276;2023-10-09T02:26:36;10.20;92.60
48994;DHT22;34804;49.214;12.276;2023-10-09T02:29:06;10.30;92.70
48994;DHT22;34804;49.214;12.276;2023-10-09T02:31:39;10.30;92.80
48994;DHT22;34804;49.214;12.276;2023-10-09T02:34:13;10.40;92.80
48994;DHT22;34804;49.214;12.276;2023-10-09T02:36:42;10.40;92.50
48994;DHT22;34804;49.214;12.276;2023-10-09T02:39:16;10.40;92.40
48994;DHT22;34804;49.214;12.276;2023-10-09T02:41:54;10.40;92.50
48994;DHT22;34804;49.214;12.276;2023-10-09T02:44:41;10.40;92.60
48994;DHT22;34804;49.214;12.276;2023-10-09T02:47:21;10.40;92.50
48994;DHT22;34804;49.214;12.276;2023-10-09T02:49:51;10.50;92.70
48994;DHT22;34804;49.214;12.276;2023-10-09T02:52:18;10.50;92.10
48994;DHT22;34804;49.214;12.276;2023-10-09T02:54:46;10.50;92.00
48994;DHT22;34804;49.214;12.276;2023-10-09T02:57:19;10.40;92.20
48994;DHT22;34804;49.214;12.276;2023-10-09T02:59:50;10.40;92.30
48994;DHT22;34804;49.214;12.276;2023-10-09T03:02:18;10.40;91.90
48994;DHT22;34804;49.214;12.276;2023-10-09T03:04:45;10.30;92.10
48994;DHT22;34804;49.214;12.276;2023-10-09T03:07:12;10.30;92.50
48994;DHT22;34804;49.214;12.276;2023-10-09T03:09:40;10.30;92.50
48994;DHT22;34804;49.214;12.276;2023-10-09T03:12:07;10.30;92.80
48994;DHT22;34804;49.214;12.276;2023-10-09T03:14:40;10.30;93.10
48994;DHT22;34804;49.214;12.276;2023-10-09T03:17:08;10.40;93.20
48994;DHT22;34804;49.214;12.276;2023-10-09T03:19:39;10.40;93.10
48994;DHT22;34804;49.214;12.276;2023-10-09T03:22:07;10.40;93.10
48994;DHT22;34804;49.214;12.276;2023-10-09T03:24:39;10.50;93.10
48994;DHT22;34804;49.214;12.276;2023-10-09T03:27:16;10.40;93.10
48994;DHT22;34804;49.214;12.276;2023-10-09T03:29:43;10.50;93.20
48994;DHT22;34804;49.214;12.276;2023-10-09T03:32:16;10.50;93.10
48994;DHT22;34804;49.214;12.276;2023-10-09T03:34:43;10.50;93.20
48994;DHT22;34804;49.214;12.276;2023-10-09T03:37:11;10.60;93.00
48994;DHT22;34804;49.214;12.276;2023-10-09T03:39:49;10.60;93.00
48994;DHT22;34804;49.214;12.276;2023-10-09T03:42:22;10.60;93.30
48994;DHT22;34804;49.214;12.276;2023-10-09T03:44:49;10.60;93.00
48994;DHT22;34804;49.214;12.276;2023-10-09T03:47:21;10.60;93.00
48994;DHT22;34804;49.214;12.276;2023-10-09T03:49:52;10.60;93.20
48994;DHT22;34804;49.214;12.276;2023-10-09T03:52:21;10.70;93.30
48994;DHT22;34804;49.214;12.276;2023-10-09T03:54:52;10.80;93.10
48994;DHT22;34804;49.214;12.276;2023-10-09T03:57:20;10.70;93.00
48994;DHT22;34804;49.214;12.276;2023-10-09T03:59:47;10.70;93.20
48994;DHT22;34804;49.214;12.276;2023-10-09T04:02:15;10.70;93.10
48994;DHT22;34804;49.214;12.276;2023-10-09T04:04:43;10.70;93.10
48994;DHT22;34804;49.214;12.276;2023-10-09T04:07:15;10.70;92.90
48994;DHT22;34804;49.214;12.276;2023-10-09T04:09:43;10.70;93.00
48994;DHT22;34804;49.214;12.276;2023-10-09T04:12:14;10.70;93.00
48994;DHT22;34804;49.214;12.276;2023-10-09T04:14:47;10.70;93.10
48994;DHT22;34804;49.214;12.276;2023-10-09T04:17:37;10.60;93.10
48994;DHT22;34804;49.214;12.276;2023-10-09T04:20:10;10.60;93.00
48994;DHT22;34804;49.214;12.276;2023-10-09T04:22:45;10.60;92.90
48994;DHT22;34804;49.214;12.276;2023-10-09T04:25:26;10.50;92.50
48994;DHT22;34804;49.214;12.276;2023-10-09T04:27:57;10.40;92.80
48994;DHT22;34804;49.214;12.276;2023-10-09T04:30:41;10.40;92.70
48994;DHT22;34804;49.214;12.276;2023-10-09T04:33:10;10.30;92.60
48994;DHT22;34804;49.214;12.276;2023-10-09T04:36:08;10.30;92.90
48994;DHT22;34804;49.214;12.276;2023-10-09T04:38:45;10.30;93.10
48994;DHT22;34804;49.214;12.276;2023-10-09T04:41:32;10.30;93.10
48994;DHT22;34804;49.214;12.276;2023-10-09T04:44:19;10.30;93.20
48994;DHT22;34804;49.214;12.276;2023-10-09T04:46:48;10.20;93.10
48994;DHT22;34804;49.214;12.276;2023-10-09T04:49:38;10.30;93.40
48994;DHT22;34804;49.214;12.276;2023-10-09T04:52:18;10.50;94.00
48994;DHT22;34804;49.214;12.276;2023-10-09T04:54:46;10.50;93.30
48994;DHT22;34804;49.214;12.276;2023-10-09T04:57:35;10.40;92.40
48994;DHT22;34804;49.214;12.276;2023-10-09T05:00:28;10.20;92.30
48994;DHT22;34804;49.214;12.276;2023-10-09T05:02:57;10.20;92.20
48994;DHT22;34804;49.214;12.276;2023-10-09T05:05:28;10.10;92.70
48994;DHT22;34804;49.214;12.276;2023-10-09T05:10:59;10.20;92.70
48994;DHT22;34804;49.214;12.276;2023-10-09T05:13:32;10.10;93.00
48994;DHT22;34804;49.214;12.276;2023-10-09T05:18:34;10.10;92.80
48994;DHT22;34804;49.214;12.276;2023-10-09T05:21:04;10.00;92.90
48994;DHT22;34804;49.214;12.276;2023-10-09T05:23:40;10.00;93.10
48994;DHT22;34804;49.214;12.276;2023-10-09T05:26:36;10.00;92.70
48994;DHT22;34804;49.214;12.276;2023-10-09T05:31:47;9.80;92.60
48994;DHT22;34804;49.214;12.276;2023-10-09T05:34:32;9.70;92.90
48994;DHT22;34804;49.214;12.276;2023-10-09T05:37:18;9.80;93.50
48994;DHT22;34804;49.214;12.276;2023-10-09T05:39:49;9.80;93.60
48994;DHT22;34804;49.214;12.276;2023-10-09T05:42:36;9.80;93.70
48994;DHT22;34804;49.214;12.276;2023-10-09T05:45:15;9.80;93.90
48994;DHT22;34804;49.214;12.276;2023-10-09T05:47:53;9.80;93.80
48994;DHT22;34804;49.214;12.276;2023-10-09T05:50:21;9.80;93.70
48994;DHT22;34804;49.214;12.276;2023-10-09T05:52:54;9.80;93.60
48994;DHT22;34804;49.214;12.276;2023-10-09T05:55:23;9.80;93.40
48994;DHT22;34804;49.214;12.276;2023-10-09T05:57:54;9.80;93.20
48994;DHT22;34804;49.214;12.276;2023-10-09T06:00:29;9.80;93.20
48994;DHT22;34804;49.214;12.276;2023-10-09T06:03:15;9.80;93.20
48994;DHT22;34804;49.214;12.276;2023-10-09T06:05:50;9.80;93.20
48994;DHT22;34804;49.214;12.276;2023-10-09T06:08:23;9.90;93.40
48994;DHT22;34804;49.214;12.276;2023-10-09T06:10:54;10.00;93.10
48994;DHT22;34804;49.214;12.276;2023-10-09T06:13:32;10.00;93.20
48994;DHT22;34804;49.214;12.276;2023-10-09T06:16:12;10.00;92.90
48994;DHT22;34804;49.214;12.276;2023-10-09T06:18:58;10.10;92.90
48994;DHT22;34804;49.214;12.276;2023-10-09T06:21:44;10.20;92.80
48994;DHT22;34804;49.214;12.276;2023-10-09T06:24:30;10.20;92.80
48994;DHT22;34804;49.214;12.276;2023-10-09T06:27:07;10.30;92.70
48994;DHT22;34804;49.214;12.276;2023-10-09T06:29:34;10.40;92.80
48994;DHT22;34804;49.214;12.276;2023-10-09T06:32:06;10.40;92.50
48994;DHT22;34804;49.214;12.276;2023-10-09T06:34:50;10.40;92.30
48994;DHT22;34804;49.214;12.276;2023-10-09T06:37:20;10.40;92.40
48994;DHT22;34804;49.214;12.276;2023-10-09T06:39:51;10.60;92.70
48994;DHT22;34804;49.214;12.276;2023-10-09T06:42:25;10.80;92.60
48994;DHT22;34804;49.214;12.276;2023-10-09T06:45:11;10.90;92.50
48994;DHT22;34804;49.214;12.276;2023-10-09T06:47:48;11.20;92.30
48994;DHT22;34804;49.214;12.276;2023-10-09T06:50:35;11.40;92.20
48994;DHT22;34804;49.214;12.276;2023-10-09T06:53:21;11.60;92.10
48994;DHT22;34804;49.214;12.276;2023-10-09T06:55:53;11.80;92.30
48994;DHT22;34804;49.214;12.276;2023-10-09T06:58:31;12.00;92.30
48994;DHT22;34804;49.214;12.276;2023-10-09T07:01:10;12.20;92.20
48994;DHT22;34804;49.214;12.276;2023-10-09T07:03:46;12.40;91.90
48994;DHT22;34804;49.214;12.276;2023-10-09T07:06:20;12.60;92.30
48994;DHT22;34804;49.214;12.276;2023-10-09T07:11:44;13.00;91.80
48994;DHT22;34804;49.214;12.276;2023-10-09T07:14:18;13.20;91.30
48994;DHT22;34804;49.214;12.276;2023-10-09T07:17:04;13.40;91.10
48994;DHT22;34804;49.214;12.276;2023-10-09T07:19:43;13.50;90.50
48994;DHT22;34804;49.214;12.276;2023-10-09T07:22:11;13.70;90.20
48994;DHT22;34804;49.214;12.276;2023-10-09T07:24:52;13.80;90.20
48994;DHT22;34804;49.214;12.276;2023-10-09T07:27:40;14.00;90.40
48994;DHT22;34804;49.214;12.276;2023-10-09T07:30:18;14.10;90.50
48994;DHT22;34804;49.214;12.276;2023-10-09T07:33:01;14.20;90.40
48994;DHT22;34804;49.214;12.276;2023-10-09T07:35:47;14.30;90.20
48994;DHT22;34804;49.214;12.276;2023-10-09T07:38:26;14.40;89.80
48994;DHT22;34804;49.214;12.276;2023-10-09T07:40:56;14.40;89.70
48994;DHT22;34804;49.214;12.276;2023-10-09T07:43:46;14.60;89.20
48994;DHT22;34804;49.214;12.276;2023-10-09T07:46:17;14.70;89.40
48994;DHT22;34804;49.214;12.276;2023-10-09T07:48:58;14.80;89.00
48994;DHT22;34804;49.214;12.276;2023-10-09T07:51:27;15.00;87.40
48994;DHT22;34804;49.214;12.276;2023-10-09T07:54:00;15.10;86.20
48994;DHT22;34804;49.214;12.276;2023-10-09T07:56:34;15.30;85.80
48994;DHT22;34804;49.214;12.276;2023-10-09T07:59:08;15.30;85.00
48994;DHT22;34804;49.214;12.276;2023-10-09T08:01:46;15.40;85.00
48994;DHT22;34804;49.214;12.276;2023-10-09T08:04:20;15.40;83.90
48994;DHT22;34804;49.214;12.276;2023-10-09T08:07:05;15.50;84.40
48994;DHT22;34804;49.214;12.276;2023-10-09T08:09:55;15.70;83.90
48994;DHT22;34804;49.214;12.276;2023-10-09T08:12:45;15.80;83.40
48994;DHT22;34804;49.214;12.276;2023-10-09T08:15:16;15.90;84.10
48994;DHT22;34804;49.214;12.276;2023-10-09T08:17:51;16.00;82.30
48994;DHT22;34804;49.214;12.276;2023-10-09T08:20:26;16.10;82.90
48994;DHT22;34804;49.214;12.276;2023-10-09T08:22:54;16.10;82.10
48994;DHT22;34804;49.214;12.276;2023-10-09T08:25:25;16.20;82.30
48994;DHT22;34804;49.214;12.276;2023-10-09T08:28:00;16.30;82.20
48994;DHT22;34804;49.214;12.276;2023-10-09T08:30:46;16.40;82.40
48994;DHT22;34804;49.214;12.276;2023-10-09T08:33:17;16.60;81.70
48994;DHT22;34804;49.214;12.276;2023-10-09T08:35:56;16.90;80.50
48994;DHT22;34804;49.214;12.276;2023-10-09T08:38:32;17.10;78.60
48994;DHT22;34804;49.214;12.276;2023-10-09T08:41:12;17.30;77.90
48994;DHT22;34804;49.214;12.276;2023-10-09T08:43:48;17.30;78.20
48994;DHT22;34804;49.214;12.276;2023-10-09T08:46:20;17.40;74.90
48994;DHT22;34804;49.214;12.276;2023-10-09T08:48:48;17.50;77.60
48994;DHT22;34804;49.214;12.276;2023-10-09T08:51:17;17.90;75.80
48994;DHT22;34804;49.214;12.276;2023-10-09T08:53:45;18.20;74.40
48994;DHT22;34804;49.214;12.276;2023-10-09T08:56:13;18.10;70.20
48994;DHT22;34804;49.214;12.276;2023-10-09T08:58:55;18.00;72.00
48994;DHT22;34804;49.214;12.276;2023-10-09T09:01:23;17.90;71.70
48994;DHT22;34804;49.214;12.276;2023-10-09T09:03:53;17.90;72.70
48994;DHT22;34804;49.214;12.276;2023-10-09T09:06:23;17.90;71.00
48994;DHT22;34804;49.214;12.276;2023-10-09T09:08:51;17.90;71.20
48994;DHT22;34804;49.214;12.276;2023-10-09T09:11:27;18.00;71.60
48994;DHT22;34804;49.214;12.276;2023-10-09T09:14:04;18.10;71.10
48994;DHT22;34804;49.214;12.276;2023-10-09T09:16:34;18.20;72.20
48994;DHT22;34804;49.214;12.276;2023-10-09T09:19:06;18.20;70.60
48994;DHT22;34804;49.214;12.276;2023-10-09T09:21:39;18.10;70.70
48994;DHT22;34804;49.214;12.276;2023-10-09T09:24:13;18.20;70.70
48994;DHT22;34804;49.214;12.276;2023-10-09T09:26:50;18.20;72.20
48994;DHT22;34804;49.214;12.276;2023-10-09T09:29:38;18.20;71.10
48994;DHT22;34804;49.214;12.276;2023-10-09T09:32:07;18.20;71.20
48994;DHT22;34804;49.214;12.276;2023-10-09T09:34:50;18.10;70.40
48994;DHT22;34804;49.214;12.276;2023-10-09T09:37:20;18.00;71.50
48994;DHT22;34804;49.214;12.276;2023-10-09T09:39:48;17.90;71.60
48994;DHT22;34804;49.214;12.276;2023-10-09T09:42:23;17.90;71.40
48994;DHT22;34804;49.214;12.276;2023-10-09T09:44:55;17.80;71.70
48994;DHT22;34804;49.214;12.276;2023-10-09T09:47:24;17.80;73.00
48994;DHT22;34804;49.214;12.276;2023-10-09T09:49:55;17.70;73.50
48994;DHT22;34804;49.214;12.276;2023-10-09T09:52:38;17.70;74.60
48994;DHT22;34804;49.214;12.276;2023-10-09T09:55:10;17.50;75.70
48994;DHT22;34804;49.214;12.276;2023-10-09T09:57:49;17.50;76.10
48994;DHT22;34804;49.214;12.276;2023-10-09T10:00:22;17.40;75.30
48994;DHT22;34804;49.214;12.276;2023-10-09T10:03:37;17.30;77.00
48994;DHT22;34804;49.214;12.276;2023-10-09T10:06:00;17.20;76.50
48994;DHT22;34804;49.214;12.276;2023-10-09T10:08:36;17.20;78.60
48994;DHT22;34804;49.214;12.276;2023-10-09T10:11:06;17.10;76.30
48994;DHT22;34804;49.214;12.276;2023-10-09T10:16:11;17.00;79.20
48994;DHT22;34804;49.214;12.276;2023-10-09T10:19:03;16.90;80.40
48994;DHT22;34804;49.214;12.276;2023-10-09T10:21:45;16.90;80.80
48994;DHT22;34804;49.214;12.276;2023-10-09T10:27:21;16.80;83.40
48994;DHT22;34804;49.214;12.276;2023-10-09T10:30:28;16.80;83.50
48994;DHT22;34804;49.214;12.276;2023-10-09T10:33:01;16.70;82.30
48994;DHT22;34804;49.214;12.276;2023-10-09T10:35:36;16.80;82.50
48994;DHT22;34804;49.214;12.276;2023-10-09T10:38:25;16.60;82.80
48994;DHT22;34804;49.214;12.276;2023-10-09T10:40:54;16.60;85.00
48994;DHT22;34804;49.214;12.276;2023-10-09T10:43:24;16.60;86.10
48994;DHT22;34804;49.214;12.276;2023-10-09T10:46:09;16.60;86.80
48994;DHT22;34804;49.214;12.276;2023-10-09T10:48:43;16.60;87.60
48994;DHT22;34804;49.214;12.276;2023-10-09T10:51:14;16.60;88.30
48994;DHT22;34804;49.214;12.276;2023-10-09T10:53:52;16.60;88.50
48994;DHT22;34804;49.214;12.276;2023-10-09T10:56:24;16.60;88.60
48994;DHT22;34804;49.214;12.276;2023-10-09T10:59:03;16.60;89.00
48994;DHT22;34804;49.214;12.276;2023-10-09T11:01:33;16.60;89.20
48994;DHT22;34804;49.214;12.276;2023-10-09T11:04:25;16.60;89.10
48994;DHT22;34804;49.214;12.276;2023-10-09T11:07:06;16.60;89.30
48994;DHT22;34804;49.214;12.276;2023-10-09T11:09:45;16.60;89.20
48994;DHT22;34804;49.214;12.276;2023-10-09T11:12:28;16.60;89.10
48994;DHT22;34804;49.214;12.276;2023-10-09T11:15:14;16.60;89.20
48994;DHT22;34804;49.214;12.276;2023-10-09T11:20:39;16.60;88.10
48994;DHT22;34804;49.214;12.276;2023-10-09T11:23:21;16.80;89.10
48994;DHT22;34804;49.214;12.276;2023-10-09T11:25:57;16.70;88.40
48994;DHT22;34804;49.214;12.276;2023-10-09T11:28:44;16.80;88.80
48994;DHT22;34804;49.214;12.276;2023-10-09T11:31:15;16.70;88.50
48994;DHT22;34804;49.214;12.276;2023-10-09T11:33:48;16.80;89.70
48994;DHT22;34804;49.214;12.276;2023-10-09T11:36:19;16.70;89.70
48994;DHT22;34804;49.214;12.276;2023-10-09T11:39:24;16.70;89.80
48994;DHT22;34804;49.214;12.276;2023-10-09T11:42:00;16.70;89.40
48994;DHT22;34804;49.214;12.276;2023-10-09T11:44:39;16.60;89.80
48994;DHT22;34804;49.214;12.276;2023-10-09T11:47:11;16.70;89.90
48994;DHT22;34804;49.214;12.276;2023-10-09T11:49:58;16.70;90.30
48994;DHT22;34804;49.214;12.276;2023-10-09T11:52:29;16.80;90.50
48994;DHT22;34804;49.214;12.276;2023-10-09T11:55:06;16.70;90.10
48994;DHT22;34804;49.214;12.276;2023-10-09T11:57:35;16.70;89.90
48994;DHT22;34804;49.214;12.276;2023-10-09T12:00:04;16.80;88.90
48994;DHT22;34804;49.214;12.276;2023-10-09T12:02:51;17.00;89.30
48994;DHT22;34804;49.214;12.276;2023-10-09T12:05:19;17.10;88.80
48994;DHT22;34804;49.214;12.276;2023-10-09T12:07:47;17.10;88.40
48994;DHT22;34804;49.214;12.276;2023-10-09T12:10:14;17.20;87.80
48994;DHT22;34804;49.214;12.276;2023-10-09T12:12:41;17.30;87.70
48994;DHT22;34804;49.214;12.276;2023-10-09T12:15:13;17.50;87.40
48994;DHT22;34804;49.214;12.276;2023-10-09T12:17:44;17.40;86.90
48994;DHT22;34804;49.214;12.276;2023-10-09T12:20:14;17.40;88.00
48994;DHT22;34804;49.214;12.276;2023-10-09T12:23:00;17.30;87.30
48994;DHT22;34804;49.214;12.276;2023-10-09T12:25:28;17.20;88.30
48994;DHT22;34804;49.214;12.276;2023-10-09T12:28:04;17.10;88.70
48994;DHT22;34804;49.214;12.276;2023-10-09T12:30:32;17.10;89.40
48994;DHT22;34804;49.214;12.276;2023-10-09T12:33:07;17.10;88.00
48994;DHT22;34804;49.214;12.276;2023-10-09T12:35:38;17.20;88.60
48994;DHT22;34804;49.214;12.276;2023-10-09T12:38:08;17.30;88.80
48994;DHT22;34804;49.214;12.276;2023-10-09T12:40:36;17.30;88.30
48994;DHT22;34804;49.214;12.276;2023-10-09T12:43:05;17.30;88.00
48994;DHT22;34804;49.214;12.276;2023-10-09T12:45:35;17.30;88.20
48994;DHT22;34804;49.214;12.276;2023-10-09T12:48:02;17.30;87.50
48994;DHT22;34804;49.214;12.276;2023-10-09T12:50:36;17.20;87.90
48994;DHT22;34804;49.214;12.276;2023-10-09T12:53:08;17.20;87.60
48994;DHT22;34804;49.214;12.276;2023-10-09T12:55:39;17.10;88.10
48994;DHT22;34804;49.214;12.276;2023-10-09T12:58:09;17.00;88.90
48994;DHT22;34804;49.214;12.276;2023-10-09T13:00:42;17.00;89.60
48994;DHT22;34804;49.214;12.276;2023-10-09T13:03:17;17.00;89.80
48994;DHT22;34804;49.214;12.276;2023-10-09T13:05:49;16.90;89.40
48994;DHT22;34804;49.214;12.276;2023-10-09T13:08:23;16.90;88.50
48994;DHT22;34804;49.214;12.276;2023-10-09T13:10:51;16.80;87.10
48994;DHT22;34804;49.214;12.276;2023-10-09T13:13:28;16.80;86.30
48994;DHT22;34804;49.214;12.276;2023-10-09T13:16:11;16.80;87.90
48994;DHT22;34804;49.214;12.276;2023-10-09T13:18:40;16.80;85.80
48994;DHT22;34804;49.214;12.276;2023-10-09T13:21:08;16.80;84.20
48994;DHT22;34804;49.214;12.276;2023-10-09T13:23:35;16.80;83.80
48994;DHT22;34804;49.214;12.276;2023-10-09T13:26:09;16.80;83.30
48994;DHT22;34804;49.214;12.276;2023-10-09T13:28:59;16.80;84.30
48994;DHT22;34804;49.214;12.276;2023-10-09T13:31:29;16.80;84.70
48994;DHT22;34804;49.214;12.276;2023-10-09T13:34:01;16.80;84.90
48994;DHT22;34804;49.214;12.276;2023-10-09T13:36:33;16.80;85.60
48994;DHT22;34804;49.214;12.276;2023-10-09T13:39:03;16.80;85.70
48994;DHT22;34804;49.214;12.276;2023-10-09T13:41:54;16.80;85.70
48994;DHT22;34804;49.214;12.276;2023-10-09T13:44:27;16.80;83.60
48994;DHT22;34804;49.214;12.276;2023-10-09T13:46:59;16.90;84.10
48994;DHT22;34804;49.214;12.276;2023-10-09T13:49:27;17.00;84.10
48994;DHT22;34804;49.214;12.276;2023-10-09T13:52:01;16.90;83.10
48994;DHT22;34804;49.214;12.276;2023-10-09T13:54:30;17.00;81.80
48994;DHT22;34804;49.214;12.276;2023-10-09T13:57:07;17.20;81.60
48994;DHT22;34804;49.214;12.276;2023-10-09T13:59:36;17.20;81.70
48994;DHT22;34804;49.214;12.276;2023-10-09T14:02:03;17.30;81.10
48994;DHT22;34804;49.214;12.276;2023-10-09T14:04:44;17.30;79.30
48994;DHT22;34804;49.214;12.276;2023-10-09T14:07:12;17.30;79.10
48994;DHT22;34804;49.214;12.276;2023-10-09T14:09:43;17.40;78.40
48994;DHT22;34804;49.214;12.276;2023-10-09T14:12:10;17.60;77.60
48994;DHT22;34804;49.214;12.276;2023-10-09T14:14:44;17.60;75.90
48994;DHT22;34804;49.214;12.276;2023-10-09T14:17:18;17.70;75.70
48994;DHT22;34804;49.214;12.276;2023-10-09T14:19:54;17.70;75.60
48994;DHT22;34804;49.214;12.276;2023-10-09T14:22:23;17.80;71.90
48994;DHT22;34804;49.214;12.276;2023-10-09T14:24:54;18.00;73.70
48994;DHT22;34804;49.214;12.276;2023-10-09T14:27:26;17.90;73.90
48994;DHT22;34804;49.214;12.276;2023-10-09T14:29:54;18.10;70.70
48994;DHT22;34804;49.214;12.276;2023-10-09T14:32:23;18.10;72.70
48994;DHT22;34804;49.214;12.276;2023-10-09T14:34:56;18.10;73.80
48994;DHT22;34804;49.214;12.276;2023-10-09T14:37:29;18.00;72.40
48994;DHT22;34804;49.214;12.276;2023-10-09T14:39:59;18.00;72.00
48994;DHT22;34804;49.214;12.276;2023-10-09T14:42:26;18.10;72.50
48994;DHT22;34804;49.214;12.276;2023-10-09T14:44:55;18.20;73.80
48994;DHT22;34804;49.214;12.276;2023-10-09T14:47:24;18.20;73.20
48994;DHT22;34804;49.214;12.276;2023-10-09T14:49:52;18.40;71.10
48994;DHT22;34804;49.214;12.276;2023-10-09T14:52:21;18.40;71.20
48994;DHT22;34804;49.214;12.276;2023-10-09T14:54:48;18.50;72.50
48994;DHT22;34804;49.214;12.276;2023-10-09T14:57:17;18.50;72.60
48994;DHT22;34804;49.214;12.276;2023-10-09T14:59:44;18.50;73.60
48994;DHT22;34804;49.214;12.276;2023-10-09T15:02:12;18.40;74.00
48994;DHT22;34804;49.214;12.276;2023-10-09T15:04:39;18.40;73.50
48994;DHT22;34804;49.214;12.276;2023-10-09T15:07:07;18.30;75.00
48994;DHT22;34804;49.214;12.276;2023-10-09T15:09:34;18.30;74.20
48994;DHT22;34804;49.214;12.276;2023-10-09T15:12:03;18.30;74.00
48994;DHT22;34804;49.214;12.276;2023-10-09T15:14:33;18.20;74.90
48994;DHT22;34804;49.214;12.276;2023-10-09T15:17:01;18.20;75.20
48994;DHT22;34804;49.214;12.276;2023-10-09T15:19:30;18.20;74.70
48994;DHT22;34804;49.214;12.276;2023-10-09T15:21:58;18.10;75.20
48994;DHT22;34804;49.214;12.276;2023-10-09T15:24:29;18.10;75.40
48994;DHT22;34804;49.214;12.276;2023-10-09T15:26:57;18.00;75.70
48994;DHT22;34804;49.214;12.276;2023-10-09T15:29:25;18.00;75.90
48994;DHT22;34804;49.214;12.276;2023-10-09T15:31:58;17.90;76.60
48994;DHT22;34804;49.214;12.276;2023-10-09T15:34:35;17.90;77.60
48994;DHT22;34804;49.214;12.276;2023-10-09T15:37:03;17.90;77.70
48994;DHT22;34804;49.214;12.276;2023-10-09T15:39:36;17.80;79.40
48994;DHT22;34804;49.214;12.276;2023-10-09T15:42:03;17.70;78.70
48994;DHT22;34804;49.214;12.276;2023-10-09T15:44:34;17.60;79.20
48994;DHT22;34804;49.214;12.276;2023-10-09T15:47:04;17.60;80.60
48994;DHT22;34804;49.214;12.276;2023-10-09T15:49:35;17.60;81.50
48994;DHT22;34804;49.214;12.276;2023-10-09T15:52:08;17.50;82.60
48994;DHT22;34804;49.214;12.276;2023-10-09T15:54:35;17.40;82.90
48994;DHT22;34804;49.214;12.276;2023-10-09T15:57:06;17.40;83.80
48994;DHT22;34804;49.214;12.276;2023-10-09T15:59:39;17.30;83.80
48994;DHT22;34804;49.214;12.276;2023-10-09T16:02:06;17.20;84.10
48994;DHT22;34804;49.214;12.276;2023-10-09T16:04:33;17.10;83.80
48994;DHT22;34804;49.214;12.276;2023-10-09T16:07:01;17.00;83.70
48994;DHT22;34804;49.214;12.276;2023-10-09T16:09:28;17.00;83.70
48994;DHT22;34804;49.214;12.276;2023-10-09T16:11:57;16.90;83.70
48994;DHT22;34804;49.214;12.276;2023-10-09T16:14:24;16.80;84.80
48994;DHT22;34804;49.214;12.276;2023-10-09T16:16:51;16.80;84.70
48994;DHT22;34804;49.214;12.276;2023-10-09T16:19:22;16.70;84.80
48994;DHT22;34804;49.214;12.276;2023-10-09T16:21:54;16.60;85.10